Time;durP1;ratioP1;P1;durP2;ratioP2;P2;SDS_P1;SDS_P2;PMS_P1;PMS_P2;Temp;Humidity;BMP_temperature;BMP_pressure;BME280_temperature;BME280_humidity;BME280_pressure;Samples;Min_cycle;Max_cycle;Signal;HPM_P1;HPM_P2
2024/01/27 00:02:28;;;;;;;6.53;2.63;;;;;;;3.13;70.21;100326.94;5008690;28;104173;-72
2024/01/27 00:04:56;;;;;;;5.30;2.60;;;;;;;3.10;70.29;100329.69;5004589;28;104395;-72
2024/01/27 00:07:25;;;;;;;4.20;2.20;;;;;;;3.09;70.67;100340.25;4990996;28;102704;-72
2024/01/27 00:09:53;;;;;;;4.18;2.22;;;;;;;3.04;70.88;100337.88;5010315;28;102699;-72
2024/01/27 00:12:20;;;;;;;5.00;2.47;;;;;;;3.00;70.60;100338.97;5008498;28;104134;-72
2024/01/27 00:14:48;;;;;;;4.00;2.15;;;;;;;3.02;70.72;100326.63;5009216;28;103229;-71
2024/01/27 00:17:16;;;;;;;4.90;2.13;;;;;;;2.93;70.68;100337.59;4984606;28;102706;-72
2024/01/27 00:19:46;;;;;;;3.50;2.13;;;;;;;2.99;71.90;100332.03;5005700;28;102925;-72
2024/01/27 00:22:14;;;;;;;4.28;2.40;;;;;;;2.99;70.58;100337.28;5010499;28;102913;-71
2024/01/27 00:24:42;;;;;;;4.35;2.67;;;;;;;2.97;71.17;100333.88;5004773;28;103263;-73
2024/01/27 00:27:10;;;;;;;5.57;2.53;;;;;;;2.93;70.82;100340.19;5004574;28;102715;-72
2024/01/27 00:29:38;;;;;;;4.50;2.42;;;;;;;2.89;70.82;100349.97;5008821;28;102718;-72
2024/01/27 00:32:06;;;;;;;4.68;2.50;;;;;;;2.87;70.87;100346.59;4991684;28;104098;-72
2024/01/27 00:34:34;;;;;;;4.85;2.30;;;;;;;2.88;71.28;100352.69;5010327;28;103318;-72
2024/01/27 00:37:03;;;;;;;6.13;2.25;;;;;;;2.77;70.95;100354.06;5011347;28;102656;-72
2024/01/27 00:39:34;;;;;;;5.22;2.72;;;;;;;2.70;71.17;100359.69;5000884;28;102641;-72
2024/01/27 00:42:01;;;;;;;5.43;2.45;;;;;;;2.68;71.72;100357.13;4989775;28;104426;-72
2024/01/27 00:44:29;;;;;;;5.40;2.72;;;;;;;2.66;71.43;100361.63;4985408;28;104370;-72
2024/01/27 00:46:57;;;;;;;7.32;2.92;;;;;;;2.68;71.39;100357.13;4989607;28;102726;-71
2024/01/27 00:49:25;;;;;;;4.93;2.28;;;;;;;2.61;72.47;100351.38;4993038;28;103932;-71
2024/01/27 00:51:53;;;;;;;5.93;3.08;;;;;;;2.65;71.46;100349.47;5003425;28;103892;-73
2024/01/27 00:54:23;;;;;;;4.75;2.75;;;;;;;2.60;72.36;100347.06;4981280;28;103312;-72
2024/01/27 00:56:50;;;;;;;5.18;2.65;;;;;;;2.58;72.47;100356.78;5011528;28;102693;-72
2024/01/27 00:59:19;;;;;;;5.35;2.67;;;;;;;2.58;71.89;100354.16;5008469;28;103195;-73
2024/01/27 01:01:46;;;;;;;5.30;2.88;;;;;;;2.54;72.19;100362.22;4991781;28;104224;-72
2024/01/27 01:04:14;;;;;;;8.25;3.10;;;;;;;2.53;71.84;100358.75;4987855;28;104424;-72
2024/01/27 01:06:42;;;;;;;5.05;2.95;;;;;;;2.51;72.58;100362.38;5009258;28;103180;-72
2024/01/27 01:09:10;;;;;;;4.85;2.92;;;;;;;2.52;71.85;100364.91;5006687;28;102748;-72
2024/01/27 01:11:39;;;;;;;4.07;2.70;;;;;;;2.48;71.69;100369.44;5006440;28;104193;-71
2024/01/27 01:14:07;;;;;;;5.90;2.97;;;;;;;2.50;72.40;100371.97;5007664;28;103346;-72
2024/01/27 01:16:35;;;;;;;4.35;2.58;;;;;;;2.51;72.44;100378.91;5013209;28;102873;-71
2024/01/27 01:19:03;;;;;;;5.63;2.55;;;;;;;2.51;72.35;100378.06;5007392;28;102847;-72
2024/01/27 01:21:34;;;;;;;9.32;4.13;;;;;;;2.50;72.21;100379.81;5013713;28;104140;-72
2024/01/27 01:24:02;;;;;;;8.02;4.15;;;;;;;2.31;73.33;100382.50;4991110;28;104144;-71
2024/01/27 01:26:30;;;;;;;8.85;4.53;;;;;;;2.30;73.33;100375.56;4990790;28;102724;-72
2024/01/27 01:28:59;;;;;;;10.77;4.00;;;;;;;2.32;73.60;100378.97;5006145;28;103181;-71
2024/01/27 01:31:27;;;;;;;6.97;3.40;;;;;;;2.33;73.02;100380.63;5012750;28;103347;-72
2024/01/27 01:33:55;;;;;;;6.10;2.70;;;;;;;2.34;73.38;100379.72;5010312;28;103291;-72
2024/01/27 01:36:23;;;;;;;6.55;4.00;;;;;;;2.35;73.11;100378.81;5010270;28;102682;-72
2024/01/27 01:38:51;;;;;;;6.45;3.45;;;;;;;2.31;73.26;100380.72;5005729;28;102642;-75
2024/01/27 01:41:18;;;;;;;5.00;3.05;;;;;;;2.29;72.97;100381.72;5000932;28;103275;-72
2024/01/27 01:43:46;;;;;;;4.75;2.70;;;;;;;2.30;72.99;100381.63;5008698;28;103287;-75
2024/01/27 01:46:15;;;;;;;4.80;2.50;;;;;;;2.36;73.64;100384.88;4991587;28;102774;-72
2024/01/27 01:48:43;;;;;;;4.75;3.00;;;;;;;2.39;73.25;100392.59;5011705;28;104228;-71
2024/01/27 01:51:13;;;;;;;4.72;2.70;;;;;;;2.39;72.81;100389.97;4990685;28;104201;-75
2024/01/27 01:53:41;;;;;;;9.77;3.85;;;;;;;2.24;73.43;100387.19;5006810;28;103232;-71
2024/01/27 01:56:09;;;;;;;4.97;2.78;;;;;;;2.14;74.07;100385.91;5009101;28;102799;-71
2024/01/27 01:58:37;;;;;;;6.43;3.15;;;;;;;2.12;73.84;100388.59;5012492;28;102766;-72
2024/01/27 02:01:05;;;;;;;5.38;3.30;;;;;;;2.14;73.25;100391.97;4991899;28;103983;-72
2024/01/27 02:03:34;;;;;;;4.28;2.75;;;;;;;2.19;73.55;100403.97;5003955;28;103415;-72
2024/01/27 02:06:02;;;;;;;4.25;2.50;;;;;;;2.18;72.95;100407.53;5012786;28;102898;-72
2024/01/27 02:08:30;;;;;;;5.75;3.30;;;;;;;2.18;73.00;100412.78;4990307;28;102864;-71
2024/01/27 02:11:01;;;;;;;4.47;3.05;;;;;;;2.14;73.33;100410.28;5011162;28;103500;-72
2024/01/27 02:13:28;;;;;;;4.85;2.55;;;;;;;2.12;73.39;100416.50;5010801;28;103250;-74
2024/01/27 02:15:57;;;;;;;4.97;2.85;;;;;;;2.13;72.81;100413.81;5005689;28;102642;-72
2024/01/27 02:18:24;;;;;;;3.65;2.40;;;;;;;2.13;73.14;100415.59;4996020;28;102867;-72
2024/01/27 02:20:54;;;;;;;4.32;2.88;;;;;;;2.09;72.82;100427.09;5010998;28;103341;-72
2024/01/27 02:23:22;;;;;;;5.10;3.03;;;;;;;2.10;72.98;100431.41;5007962;28;103151;-72
2024/01/27 02:25:51;;;;;;;5.70;2.88;;;;;;;2.12;73.65;100432.19;5007923;28;102642;-72
2024/01/27 02:28:19;;;;;;;4.93;3.00;;;;;;;2.00;73.57;100433.59;5009159;28;102956;-72
2024/01/27 02:30:47;;;;;;;5.25;3.00;;;;;;;1.98;73.30;100438.06;5007262;28;103332;-72
2024/01/27 02:33:15;;;;;;;5.97;3.13;;;;;;;1.95;73.38;100432.97;5010563;28;103194;-72
2024/01/27 02:35:44;;;;;;;5.57;2.95;;;;;;;1.96;73.21;100429.44;5011013;28;103054;-72
2024/01/27 02:38:12;;;;;;;4.68;2.80;;;;;;;1.95;73.28;100432.97;5008455;28;102719;-72
2024/01/27 02:40:40;;;;;;;5.38;2.97;;;;;;;1.92;72.83;100440.94;5007198;28;103706;-72
2024/01/27 02:43:09;;;;;;;5.47;2.75;;;;;;;1.92;73.16;100443.56;5004783;28;103223;-72
2024/01/27 02:45:37;;;;;;;5.00;2.72;;;;;;;1.86;73.43;100447.31;5010459;28;102949;-72
2024/01/27 02:48:05;;;;;;;4.47;2.67;;;;;;;1.87;73.03;100450.75;4986619;28;103811;-72
2024/01/27 02:50:33;;;;;;;5.68;2.60;;;;;;;1.85;73.74;100463.03;5003490;28;103496;-71
2024/01/27 02:53:01;;;;;;;4.80;2.88;;;;;;;1.86;73.10;100459.50;4988780;28;103261;-71
2024/01/27 02:55:29;;;;;;;5.90;2.60;;;;;;;1.85;73.17;100452.59;5008342;28;102721;-72
2024/01/27 02:57:57;;;;;;;4.50;2.67;;;;;;;1.81;73.29;100452.72;4985315;28;104183;-71
2024/01/27 03:00:26;;;;;;;4.32;2.60;;;;;;;1.73;73.43;100443.53;4990893;28;104393;-71
2024/01/27 03:02:58;;;;;;;6.15;3.80;;;;;;;1.73;73.69;100449.63;4988198;28;103304;-71
2024/01/27 03:05:26;;;;;;;8.00;3.50;;;;;;;1.67;73.83;100459.50;5000203;28;103439;-71
2024/01/27 03:07:54;;;;;;;6.80;4.20;;;;;;;1.52;74.31;100461.00;5013113;28;103854;-72
2024/01/27 03:10:22;;;;;;;5.72;3.00;;;;;;;1.57;74.41;100461.66;5010094;28;103308;-72
2024/01/27 03:12:50;;;;;;;4.00;2.65;;;;;;;1.57;74.50;100462.53;5006561;28;103429;-71
2024/01/27 03:15:17;;;;;;;5.15;3.25;;;;;;;1.60;74.23;100458.94;5007906;28;102711;-71
2024/01/27 03:17:47;;;;;;;4.93;2.78;;;;;;;1.64;74.50;100461.31;4998563;28;102653;-71
2024/01/27 03:20:15;;;;;;;4.82;2.80;;;;;;;1.57;74.54;100461.66;5006372;28;103389;-72
2024/01/27 03:22:43;;;;;;;5.55;2.72;;;;;;;1.63;74.38;100459.63;4989301;28;104387;-72
2024/01/27 03:25:11;;;;;;;4.55;2.47;;;;;;;1.65;74.26;100463.03;5003935;28;102721;-72
2024/01/27 03:27:39;;;;;;;5.47;2.38;;;;;;;1.65;73.98;100454.31;4985640;28;102885;-72
2024/01/27 03:30:08;;;;;;;4.10;2.40;;;;;;;1.67;73.63;100455.13;4989866;28;103438;-72
2024/01/27 03:32:39;;;;;;;4.47;2.40;;;;;;;1.70;74.37;100462.81;5005969;28;104518;-72
2024/01/27 03:35:09;;;;;;;5.63;2.90;;;;;;;1.71;73.52;100467.13;5004452;28;102785;-73
2024/01/27 03:37:37;;;;;;;4.78;2.85;;;;;;;1.65;73.36;100472.59;4989604;28;104356;-72
2024/01/27 03:40:06;;;;;;;5.88;2.97;;;;;;;1.65;73.69;100483.06;5006418;28;104151;-72
2024/01/27 03:42:34;;;;;;;4.20;2.70;;;;;;;1.60;73.45;100485.88;4987470;28;104119;-71
2024/01/27 03:45:02;;;;;;;4.97;3.08;;;;;;;1.58;73.23;100498.16;5008158;28;102618;-73
2024/01/27 03:47:31;;;;;;;5.97;3.28;;;;;;;1.47;72.86;100506.44;5010691;28;103981;-72
2024/01/27 03:49:58;;;;;;;6.82;3.72;;;;;;;1.41;73.01;100495.41;4986162;28;103172;-72
2024/01/27 03:52:30;;;;;;;6.18;2.85;;;;;;;1.35;73.16;100496.53;4989545;28;104242;-71
2024/01/27 03:54:59;;;;;;;4.43;2.92;;;;;;;1.19;73.02;100501.53;5006460;28;103890;-72
2024/01/27 03:57:26;;;;;;;7.18;3.28;;;;;;;1.12;73.31;100500.94;4984922;28;102772;-72
2024/01/27 03:59:54;;;;;;;7.63;3.70;;;;;;;1.14;73.72;100498.25;5012785;28;104315;-72
2024/01/27 04:02:22;;;;;;;7.15;3.50;;;;;;;1.08;74.03;100496.75;5000281;28;103310;-72
2024/01/27 04:04:50;;;;;;;5.40;2.67;;;;;;;1.10;74.29;100497.56;5003631;28;102599;-72
2024/01/27 04:07:18;;;;;;;5.30;3.10;;;;;;;1.11;74.31;100494.03;5001962;28;104150;-72
2024/01/27 04:09:47;;;;;;;4.15;2.60;;;;;;;1.10;74.12;100492.34;5005634;28;103213;-72
2024/01/27 04:12:15;;;;;;;5.80;3.53;;;;;;;1.11;73.79;100494.03;5002492;28;103292;-71
2024/01/27 04:14:43;;;;;;;5.00;3.00;;;;;;;1.04;73.54;100497.81;5005832;28;102866;-71
2024/01/27 04:17:11;;;;;;;5.13;3.30;;;;;;;0.99;73.59;100504.97;4999922;28;102679;-72
2024/01/27 04:19:39;;;;;;;4.78;3.03;;;;;;;0.91;73.92;100497.44;4986963;28;104196;-72
2024/01/27 04:22:07;;;;;;;6.85;4.45;;;;;;;0.82;73.67;100496.06;4983165;28;103354;-72
2024/01/27 04:24:35;;;;;;;6.68;4.28;;;;;;;0.62;74.71;100501.22;4989043;28;102721;-73
2024/01/27 04:27:05;;;;;;;10.88;4.78;;;;;;;0.53;74.84;100501.59;5006665;27;103910;-71
2024/01/27 04:29:33;;;;;;;6.03;3.50;;;;;;;0.48;76.07;100510.41;4988953;28;104233;-71
2024/01/27 04:32:01;;;;;;;8.73;4.07;;;;;;;0.55;75.79;100511.06;4989690;28;103232;-71
2024/01/27 04:34:29;;;;;;;8.02;3.40;;;;;;;0.68;76.17;100508.78;5008443;28;102690;-72
2024/01/27 04:36:59;;;;;;;6.05;3.50;;;;;;;0.70;75.51;100514.81;4981122;28;102773;-72
2024/01/27 04:39:27;;;;;;;8.95;3.33;;;;;;;0.70;75.29;100514.81;5009177;28;104901;-71
2024/01/27 04:41:55;;;;;;;6.30;2.72;;;;;;;0.72;75.10;100513.00;5007696;28;103170;-71
2024/01/27 04:44:24;;;;;;;7.78;4.15;;;;;;;0.77;74.69;100518.88;5007121;28;103684;-72
2024/01/27 04:46:53;;;;;;;5.35;3.53;;;;;;;0.71;74.81;100513.03;5011020;28;103985;-71
2024/01/27 04:49:21;;;;;;;7.22;3.35;;;;;;;0.70;74.96;100509.59;5010658;28;104817;-71
2024/01/27 04:51:50;;;;;;;5.20;3.00;;;;;;;0.70;74.83;100504.38;5014326;28;104770;-72
2024/01/27 04:54:18;;;;;;;7.03;2.47;;;;;;;0.72;74.79;100510.41;5008882;28;102686;-71
2024/01/27 04:56:46;;;;;;;4.45;2.85;;;;;;;0.73;74.52;100519.06;5014841;28;105203;-72
2024/01/27 04:59:14;;;;;;;4.30;2.70;;;;;;;0.76;74.75;100524.16;5012799;28;103266;-70
2024/01/27 05:01:46;;;;;;;4.25;2.45;;;;;;;0.77;74.59;100516.28;5011634;28;103261;-72
2024/01/27 05:04:14;;;;;;;3.72;2.53;;;;;;;0.68;74.07;100519.22;5014098;28;102803;-71
2024/01/27 05:06:45;;;;;;;5.63;2.58;;;;;;;0.67;74.23;100530.59;5006704;28;103984;-70
2024/01/27 05:09:14;;;;;;;7.80;3.35;;;;;;;0.65;74.11;100527.19;5013713;28;104965;-72
2024/01/27 05:11:42;;;;;;;6.55;3.58;;;;;;;0.61;74.21;100523.00;5010674;28;102982;-72
2024/01/27 05:14:10;;;;;;;3.85;2.60;;;;;;;0.55;74.07;100520.63;5012140;28;102780;-70
2024/01/27 05:16:38;;;;;;;6.95;3.78;;;;;;;0.57;74.15;100524.03;5005910;28;103994;-70
2024/01/27 05:19:07;;;;;;;5.22;3.25;;;;;;;0.51;74.34;100524.25;5010160;28;104158;-71
2024/01/27 05:21:35;;;;;;;7.28;3.85;;;;;;;0.44;74.61;100529.69;4991770;28;103344;-70
2024/01/27 05:24:04;;;;;;;5.20;3.00;;;;;;;0.46;75.26;100529.66;5007467;28;102763;-73
2024/01/27 05:26:32;;;;;;;5.30;3.38;;;;;;;0.49;75.10;100532.97;5009285;28;102733;-70
2024/01/27 05:29:00;;;;;;;5.20;3.03;;;;;;;0.47;74.96;100529.59;4988661;28;103250;-71
2024/01/27 05:31:28;;;;;;;4.22;2.60;;;;;;;0.47;75.03;100524.38;5007908;28;104683;-72
2024/01/27 05:33:56;;;;;;;6.82;2.80;;;;;;;0.50;74.96;100515.59;5016082;28;102677;-71
2024/01/27 05:36:26;;;;;;;8.30;3.38;;;;;;;0.53;74.97;100517.25;5013775;28;104021;-72
2024/01/27 05:38:54;;;;;;;4.28;2.70;;;;;;;0.48;74.82;100515.63;5008135;28;104149;-71
2024/01/27 05:41:26;;;;;;;5.43;2.90;;;;;;;0.49;74.69;100517.34;4986662;28;104501;-71
2024/01/27 05:43:54;;;;;;;3.83;2.90;;;;;;;0.35;74.47;100519.63;4989779;28;102920;-71
2024/01/27 05:46:22;;;;;;;5.55;2.72;;;;;;;0.31;74.80;100518.03;5007670;28;103861;-71
2024/01/27 05:48:50;;;;;;;6.03;3.30;;;;;;;0.25;74.99;100523.47;5005906;28;106146;-71
2024/01/27 05:51:22;;;;;;;3.95;2.70;;;;;;;0.25;75.09;100520.88;5011273;28;104745;-73
2024/01/27 05:53:54;;;;;;;6.38;3.58;;;;;;;0.25;74.86;100526.09;5008461;28;103916;-73
2024/01/27 05:56:24;;;;;;;6.85;4.05;;;;;;;0.14;75.36;100527.34;4992981;28;103027;-72
2024/01/27 05:58:53;;;;;;;6.78;3.33;;;;;;;0.08;75.84;100527.56;5013201;28;103409;-72
2024/01/27 06:01:21;;;;;;;8.45;4.40;;;;;;;0.07;75.57;100519.81;5014027;28;103071;-72
2024/01/27 06:03:49;;;;;;;6.97;3.72;;;;;;;0.01;75.92;100526.09;5017166;28;102715;-72
2024/01/27 06:06:17;;;;;;;6.20;3.63;;;;;;;-0.14;76.20;100532.72;5014673;28;104268;-70
2024/01/27 06:08:47;;;;;;;12.02;4.50;;;;;;;-0.09;76.16;100538.59;5011639;28;104190;-70
2024/01/27 06:11:24;;;;;;;6.60;3.53;;;;;;;-0.16;76.43;100542.31;4988933;28;103112;-70
2024/01/27 06:13:52;;;;;;;9.32;4.55;;;;;;;-0.12;76.66;100541.31;5012820;28;102698;-70
2024/01/27 06:16:23;;;;;;;5.88;3.28;;;;;;;-0.06;76.85;100541.09;5010049;28;103846;-70
2024/01/27 06:18:51;;;;;;;6.93;3.58;;;;;;;-0.13;76.54;100541.34;4994314;28;104233;-70
2024/01/27 06:21:19;;;;;;;6.82;3.80;;;;;;;-0.15;76.59;100540.59;4999277;28;103812;-69
2024/01/27 06:23:47;;;;;;;5.20;3.20;;;;;;;-0.23;76.68;100539.09;4983834;28;103082;-70
2024/01/27 06:26:16;;;;;;;4.25;2.83;;;;;;;-0.15;77.26;100543.19;5003682;28;102676;-70
2024/01/27 06:28:44;;;;;;;7.00;3.08;;;;;;;-0.09;76.72;100543.81;5005100;28;103347;-73
2024/01/27 06:31:14;;;;;;;3.80;2.47;;;;;;;-0.04;76.69;100554.06;4994162;28;103148;-71
2024/01/27 06:33:44;;;;;;;6.63;3.33;;;;;;;-0.03;75.85;100551.41;5007358;28;102766;-71
2024/01/27 06:36:12;;;;;;;8.00;4.25;;;;;;;-0.16;75.53;100555.34;5001947;28;104381;-71
2024/01/27 06:38:40;;;;;;;7.30;3.40;;;;;;;-0.13;76.06;100555.25;5003869;28;104289;-70
2024/01/27 06:41:08;;;;;;;6.03;3.20;;;;;;;-0.20;76.06;100559.84;5009465;28;103296;-71
2024/01/27 06:43:37;;;;;;;6.15;2.78;;;;;;;-0.13;76.33;100568.28;4987534;28;102758;-71
2024/01/27 06:46:07;;;;;;;4.18;2.50;;;;;;;-0.11;76.00;100569.06;4982982;28;104268;-71
2024/01/27 06:48:35;;;;;;;10.52;3.72;;;;;;;-0.11;75.45;100558.63;4999532;28;103948;-71
2024/01/27 06:51:06;;;;;;;7.15;3.97;;;;;;;-0.28;75.51;100572.25;4956831;28;108247;-71
2024/01/27 06:53:34;;;;;;;4.88;2.95;;;;;;;-0.35;75.81;100566.41;4984988;28;102896;-70
2024/01/27 06:56:01;;;;;;;9.10;3.97;;;;;;;-0.39;75.91;100556.16;4997791;28;103951;-69
2024/01/27 06:58:29;;;;;;;6.93;3.80;;;;;;;-0.45;75.97;100559.81;5010767;28;103937;-71
2024/01/27 07:00:59;;;;;;;6.20;3.17;;;;;;;-0.52;76.03;100564.38;4998846;28;103292;-71
2024/01/27 07:03:27;;;;;;;6.47;3.78;;;;;;;-0.46;76.29;100572.88;4990442;28;102773;-73
2024/01/27 07:05:55;;;;;;;5.63;3.58;;;;;;;-0.39;76.28;100566.56;5004916;28;104325;-73
2024/01/27 07:08:23;;;;;;;6.68;3.90;;;;;;;-0.41;75.92;100571.81;4980932;28;104115;-72
2024/01/27 07:10:51;;;;;;;6.13;3.67;;;;;;;-0.35;76.20;100570.78;4972855;28;104307;-73
2024/01/27 07:13:19;;;;;;;7.32;4.05;;;;;;;-0.34;75.85;100568.09;4983907;28;102790;-74
2024/01/27 07:15:48;;;;;;;7.82;4.85;;;;;;;-0.54;75.83;100571.41;5002833;28;104060;-71
2024/01/27 07:18:19;;;;;;;9.75;4.65;;;;;;;-0.76;77.71;100575.59;4996841;28;103302;-73
2024/01/27 07:20:47;;;;;;;9.57;5.22;;;;;;;-0.80;77.89;100574.00;4999944;28;103495;-71
2024/01/27 07:23:15;;;;;;;7.30;4.05;;;;;;;-0.65;77.91;100573.50;5001454;28;102652;-74
2024/01/27 07:25:43;;;;;;;5.93;3.67;;;;;;;-0.53;78.08;100574.84;5005088;28;102895;-75
2024/01/27 07:28:11;;;;;;;9.90;4.75;;;;;;;-0.68;77.34;100584.00;4990789;28;104308;-76
2024/01/27 07:30:39;;;;;;;9.35;5.25;;;;;;;-0.72;78.29;100579.78;5003112;28;103289;-75
2024/01/27 07:33:07;;;;;;;7.47;5.45;;;;;;;-0.71;78.53;100584.09;5012354;28;102786;-73
2024/01/27 07:35:39;;;;;;;8.27;5.00;;;;;;;-0.62;78.38;100586.41;4979076;28;103054;-72
2024/01/27 07:38:08;;;;;;;12.90;5.38;;;;;;;-0.64;78.51;100577.81;4987997;28;103420;-72
2024/01/27 07:40:36;;;;;;;9.70;4.65;;;;;;;-0.60;78.64;100581.13;5001443;28;103168;-73
2024/01/27 07:43:04;;;;;;;11.43;5.05;;;;;;;-0.64;78.89;100580.41;5000979;28;102747;-72
2024/01/27 07:45:33;;;;;;;10.75;5.07;;;;;;;-0.52;79.01;100590.41;5000100;28;103979;-72
2024/01/27 07:48:01;;;;;;;9.50;5.15;;;;;;;-0.31;78.56;100576.69;4993538;28;103374;-73
2024/01/27 07:50:29;;;;;;;10.25;4.97;;;;;;;-0.07;78.19;100575.84;4983453;28;103482;-74
2024/01/27 07:52:59;;;;;;;8.57;5.75;;;;;;;-0.07;77.99;100575.84;4979517;28;102701;-72
2024/01/27 07:55:26;;;;;;;9.90;5.55;;;;;;;0.12;78.02;100575.22;4983404;28;103400;-73
2024/01/27 07:57:54;;;;;;;7.13;4.65;;;;;;;0.37;77.76;100583.00;4969896;28;103253;-73
2024/01/27 08:00:24;;;;;;;7.13;4.20;;;;;;;0.77;77.31;100578.88;5002115;28;103086;-76
2024/01/27 08:02:52;;;;;;;6.85;4.25;;;;;;;1.03;76.28;100574.38;4983832;28;102914;-75
2024/01/27 08:05:20;;;;;;;8.55;4.32;;;;;;;1.29;74.62;100569.88;4995983;28;102715;-74
2024/01/27 08:07:49;;;;;;;10.55;6.50;;;;;;;1.40;73.09;100565.09;4976825;28;104416;-74
2024/01/27 08:10:19;;;;;;;6.05;3.95;;;;;;;1.57;73.46;100568.72;5003715;28;103367;-75
2024/01/27 08:12:47;;;;;;;6.20;3.85;;;;;;;1.76;73.42;100569.66;4999388;28;102667;-74
2024/01/27 08:15:16;;;;;;;8.55;4.72;;;;;;;2.04;73.07;100562.38;4977755;28;102913;-75
2024/01/27 08:17:44;;;;;;;8.30;4.43;;;;;;;2.27;71.98;100558.75;4954385;28;104480;-74
2024/01/27 08:20:13;;;;;;;7.97;5.40;;;;;;;2.27;70.37;100570.03;4993456;28;103236;-74
2024/01/27 08:22:43;;;;;;;9.35;6.60;;;;;;;2.23;71.22;100575.50;5002494;27;102686;-75
2024/01/27 08:25:11;;;;;;;10.07;5.90;;;;;;;2.28;70.65;100576.97;5005661;28;103526;-74
2024/01/27 08:27:42;;;;;;;10.18;5.63;;;;;;;2.25;71.62;100576.25;4988166;28;105390;-75
2024/01/27 08:30:12;;;;;;;9.38;5.53;;;;;;;2.43;71.15;100564.97;4989184;28;104076;-75
2024/01/27 08:32:41;;;;;;;8.40;5.75;;;;;;;2.55;71.44;100562.72;4999599;28;102705;-75
2024/01/27 08:35:09;;;;;;;10.80;6.03;;;;;;;2.59;71.65;100572.13;4988275;28;102799;-73
2024/01/27 08:37:39;;;;;;;9.98;5.57;;;;;;;2.79;70.47;100566.81;4981544;28;104608;-77
2024/01/27 08:40:08;;;;;;;10.73;6.22;;;;;;;2.98;70.25;100568.53;4972951;27;103191;-75
2024/01/27 08:42:36;;;;;;;11.43;6.47;;;;;;;2.52;71.95;100563.69;4999006;28;102787;-73
2024/01/27 08:45:06;;;;;;;11.00;6.55;;;;;;;1.84;72.87;100571.94;4999355;28;102640;-75
2024/01/27 08:47:34;;;;;;;8.88;5.10;;;;;;;2.32;74.03;100573.31;4980955;28;103409;-74
2024/01/27 08:50:03;;;;;;;8.40;5.25;;;;;;;1.87;72.17;100576.19;4979164;28;104449;-73
2024/01/27 08:52:31;;;;;;;9.05;5.50;;;;;;;2.04;73.32;100573.66;4991672;28;102656;-74
2024/01/27 08:55:00;;;;;;;7.88;5.63;;;;;;;1.70;74.76;100569.91;4991563;28;104001;-73
2024/01/27 08:57:28;;;;;;;8.20;6.00;;;;;;;1.72;75.00;100568.09;4999113;28;103294;-73
2024/01/27 08:59:56;;;;;;;10.77;5.82;;;;;;;1.92;74.41;100559.38;4985972;28;104319;-75
2024/01/27 09:02:26;;;;;;;8.80;6.13;;;;;;;1.93;73.06;100562.84;4976091;28;102800;-73
2024/01/27 09:04:54;;;;;;;11.73;6.95;;;;;;;1.85;73.65;100570.16;5003515;28;102761;-73
2024/01/27 09:07:22;;;;;;;10.57;6.00;;;;;;;2.29;73.21;100556.91;4976597;28;103178;-72
2024/01/27 09:09:50;;;;;;;9.98;6.05;;;;;;;2.49;71.96;100558.63;5004599;28;103163;-74
2024/01/27 09:12:18;;;;;;;7.82;5.03;;;;;;;3.23;71.87;100559.50;5001506;28;102704;-73
2024/01/27 09:14:46;;;;;;;8.23;5.15;;;;;;;3.74;70.03;100564.84;5005046;28;103655;-73
2024/01/27 09:17:14;;;;;;;8.30;5.47;;;;;;;4.01;68.54;100562.56;5000985;28;105095;-74
2024/01/27 09:19:43;;;;;;;8.27;5.85;;;;;;;3.84;68.04;100559.94;5002465;28;103377;-74
2024/01/27 09:22:13;;;;;;;12.23;6.82;;;;;;;3.21;69.95;100569.19;4989985;28;102797;-74
2024/01/27 09:24:41;;;;;;;10.00;6.07;;;;;;;3.81;70.17;100574.06;5003614;28;102953;-74
2024/01/27 09:27:10;;;;;;;11.18;5.30;;;;;;;4.33;69.11;100565.25;5007777;28;103475;-73
2024/01/27 09:29:39;;;;;;;9.43;4.93;;;;;;;4.68;67.72;100562.50;5003867;28;103336;-74
2024/01/27 09:32:07;;;;;;;9.98;6.55;;;;;;;4.71;66.62;100556.22;5000064;28;102718;-73
2024/01/27 09:34:35;;;;;;;11.20;5.88;;;;;;;4.88;66.44;100557.91;5008705;28;102783;-74
2024/01/27 09:37:05;;;;;;;8.93;5.72;;;;;;;5.04;66.12;100563.16;5000011;28;104139;-74
2024/01/27 09:39:33;;;;;;;8.43;5.85;;;;;;;5.08;66.42;100570.78;4988257;28;104302;-88
2024/01/27 09:42:11;;;;;;;8.27;4.97;;;;;;;4.69;66.88;100574.69;4987318;28;102830;-89
2024/01/27 09:44:41;;;;;;;11.35;4.72;;;;;;;5.23;66.48;100570.84;4983147;27;102869;-88
2024/01/27 09:47:10;;;;;;;9.35;5.50;;;;;;;5.31;64.56;100576.50;4987741;28;104123;-89
2024/01/27 09:49:40;;;;;;;10.10;4.82;;;;;;;5.40;65.69;100575.97;5005362;28;103266;-88
2024/01/27 09:52:10;;;;;;;10.73;5.68;;;;;;;5.64;64.68;100583.34;4997650;28;102715;-74
2024/01/27 09:54:38;;;;;;;9.23;5.15;;;;;;;5.05;64.96;100580.59;5002715;28;103462;-74
2024/01/27 09:57:07;;;;;;;9.73;5.38;;;;;;;5.44;65.67;100582.72;4996999;28;104015;-75
2024/01/27 09:59:37;;;;;;;12.02;5.10;;;;;;;5.59;64.52;100591.53;5003933;28;103211;-87
2024/01/27 10:02:09;;;;;;;19.63;5.57;;;;;;;5.77;64.25;100589.56;5005390;28;102639;-81
2024/01/27 10:04:37;;;;;;;12.65;6.03;;;;;;;5.56;63.55;100594.31;5008152;28;102788;-75
2024/01/27 10:07:05;;;;;;;13.95;5.88;;;;;;;5.77;64.85;100596.63;4992826;28;104044;-74
2024/01/27 10:09:34;;;;;;;9.98;5.60;;;;;;;5.24;62.98;100597.03;5004773;28;103184;-76
2024/01/27 10:12:03;;;;;;;9.45;5.78;;;;;;;5.53;64.88;100598.91;5004938;28;102972;-77
2024/01/27 10:14:39;;;;;;;10.25;6.00;;;;;;;5.82;63.33;100603.28;4986480;28;104181;-75
2024/01/27 10:17:10;;;;;;;9.02;5.95;;;;;;;6.05;63.46;100598.50;4986764;28;104373;-77
2024/01/27 10:19:38;;;;;;;8.15;5.10;;;;;;;6.20;64.26;100591.47;4983323;28;104215;-75
2024/01/27 10:22:12;;;;;;;8.02;4.72;;;;;;;6.28;62.83;100596.25;4987556;28;103106;-77
2024/01/27 10:24:41;;;;;;;8.93;4.68;;;;;;;6.36;63.11;100590.53;5004586;28;102934;-75
2024/01/27 10:27:10;;;;;;;8.23;5.70;;;;;;;6.06;62.16;100589.66;4993670;28;103433;-78
2024/01/27 10:29:39;;;;;;;11.02;6.20;;;;;;;6.20;61.64;100591.47;5006481;28;103195;-79
2024/01/27 10:32:10;;;;;;;16.02;5.57;;;;;;;6.42;61.50;100596.25;4993854;28;103039;-79
2024/01/27 10:34:39;;;;;;;12.88;5.20;;;;;;;6.44;61.02;100589.09;5006390;28;104197;-74
2024/01/27 10:37:07;;;;;;;8.38;5.32;;;;;;;6.29;61.71;100584.78;4993760;28;104077;-75
2024/01/27 10:39:35;;;;;;;12.25;4.68;;;;;;;6.60;62.30;100578.47;5012886;28;103191;-86
2024/01/27 10:42:07;;;;;;;9.75;4.82;;;;;;;6.78;61.71;100586.13;5005709;28;102719;-75
2024/01/27 10:44:42;;;;;;;8.80;5.43;;;;;;;6.87;61.66;100590.00;5009624;28;102717;-77
2024/01/27 10:47:18;;;;;;;10.65;5.38;;;;;;;6.71;60.92;100576.94;4995862;28;104210;-76
2024/01/27 10:49:49;;;;;;;14.75;6.03;;;;;;;6.90;61.04;100573.97;4975630;28;104104;-78
2024/01/27 10:52:22;;;;;;;9.82;5.63;;;;;;;7.01;61.05;100560.97;4991843;28;103116;-79
2024/01/27 10:54:52;;;;;;;8.95;4.97;;;;;;;7.13;59.53;100560.16;5009251;28;103187;-77
2024/01/27 10:57:22;;;;;;;11.82;4.80;;;;;;;7.01;60.83;100550.44;4980611;28;104425;-78
2024/01/27 10:59:52;;;;;;;8.07;3.88;;;;;;;7.10;60.22;100544.56;4994513;28;103237;-77
2024/01/27 11:02:22;;;;;;;9.90;4.63;;;;;;;6.60;59.53;100541.59;4987871;28;102889;-76
2024/01/27 11:05:15;;;;;;;7.57;4.57;;;;;;;7.07;59.08;100533.38;4988491;28;102930;-77
2024/01/27 11:07:49;;;;;;;6.05;3.80;;;;;;;7.53;59.31;100526.81;4991362;28;102756;-78
2024/01/27 11:10:17;;;;;;;11.73;4.90;;;;;;;7.50;59.39;100521.78;4987927;28;103259;-77
2024/01/27 11:12:52;;;;;;;8.40;3.92;;;;;;;7.66;59.42;100519.75;4971740;28;102718;-77
2024/01/27 11:15:20;;;;;;;9.95;4.13;;;;;;;7.84;58.29;100522.94;4988138;28;103930;-77
2024/01/27 11:17:48;;;;;;;7.10;3.78;;;;;;;7.83;58.05;100520.41;5002920;28;103141;-76
2024/01/27 11:20:17;;;;;;;5.90;3.00;;;;;;;7.90;57.71;100516.38;4985912;28;103440;-76
2024/01/27 11:22:47;;;;;;;8.10;3.60;;;;;;;7.87;56.10;100513.97;5005762;28;102829;-76
2024/01/27 11:25:17;;;;;;;7.18;3.45;;;;;;;8.05;54.93;100510.06;4984168;28;103940;-77
2024/01/27 11:27:52;;;;;;;7.13;3.58;;;;;;;8.26;55.23;100501.59;4983117;28;104169;-76
2024/01/27 11:30:47;;;;;;;8.23;3.20;;;;;;;7.90;56.28;100497.91;4990694;28;105016;-77